Southwest Harbor, Maine
Current Conditions -  °F | °C
As of 10:55 AM on Thursday 27 Nov 2014 (Local Time) from KBHB Reporting Station
Overcast Overcast  
Wind Chill: 21°   Ceiling: 2100
Heat Index: 30°   Visibility: 10mi
Dew Point: 30°   Wind: 10mph
Humidity: 100%   Direction: 340°NNW
Pressure: 29.82"   Gusts: 18mph
Location:  44.28°N, 68.32°W
Report Text: KBHB 271555Z AUTO 34009G16KT 10SM OVC021 M01/M01 A2982 RMK AO1
Loading
Personal Weather Stations






























Interactive Weather Map New forecast layout! Learn more

10-Day Weather Forecast

Advertisements
Track Severe Weather on mobile